Time;durP1;ratioP1;P1;durP2;ratioP2;P2;SDS_P1;SDS_P2;PMS_P1;PMS_P2;Temp;Humidity;BMP_temperature;BMP_pressure;BME280_temperature;BME280_humidity;BME280_pressure;Samples;Min_cycle;Max_cycle;Signal;HPM_P1;HPM_P2
2022/10/23 00:00:34;;;;;;;25.80;16.58;;;;;;;10.76;100.00;101286.31;5032199;28;20026;-61
2022/10/23 00:02:59;;;;;;;25.52;16.02;;;;;;;10.77;100.00;101279.63;5030384;28;20025;-61
2022/10/23 00:05:26;;;;;;;25.17;16.13;;;;;;;10.78;100.00;101280.47;5031649;28;20034;-61
2022/10/23 00:07:54;;;;;;;24.80;16.38;;;;;;;10.79;100.00;101278.50;5031811;28;20113;-61
2022/10/23 00:10:20;;;;;;;26.40;17.35;;;;;;;10.76;100.00;101283.56;5031904;28;20035;-61
2022/10/23 00:12:46;;;;;;;24.40;15.07;;;;;;;10.75;100.00;101287.44;5031551;28;20424;-61
2022/10/23 00:15:12;;;;;;;24.67;16.35;;;;;;;10.75;100.00;101281.91;5031586;28;20025;-61
2022/10/23 00:17:38;;;;;;;26.58;16.52;;;;;;;10.77;100.00;101282.41;5031707;28;20420;-61
2022/10/23 00:20:06;;;;;;;25.40;16.92;;;;;;;10.77;100.00;101276.88;5031628;28;20032;-62
2022/10/23 00:22:31;;;;;;;25.40;16.05;;;;;;;10.76;100.00;101278.00;5031648;28;20062;-61
2022/10/23 00:24:56;;;;;;;25.45;16.35;;;;;;;10.77;100.00;101276.06;5031842;28;20052;-61
2022/10/23 00:27:22;;;;;;;24.35;16.67;;;;;;;10.75;100.00;101273.59;5031654;28;20485;-61
2022/10/23 00:29:48;;;;;;;25.48;15.38;;;;;;;10.77;100.00;101281.59;5031578;28;20034;-61
2022/10/23 00:32:13;;;;;;;24.65;15.60;;;;;;;10.76;100.00;101283.56;5031561;28;20032;-61
2022/10/23 00:34:38;;;;;;;25.00;16.05;;;;;;;10.76;100.00;101280.78;5031550;28;20029;-61
2022/10/23 00:37:04;;;;;;;24.63;15.80;;;;;;;10.77;100.00;101278.81;5031654;28;20029;-62
2022/10/23 00:39:29;;;;;;;25.48;16.00;;;;;;;10.78;100.00;101288.78;5031599;28;20088;-61
2022/10/23 00:41:54;;;;;;;25.58;16.10;;;;;;;10.76;100.00;101283.56;5031651;28;20480;-61
2022/10/23 00:44:20;;;;;;;25.48;15.73;;;;;;;10.77;100.00;101276.06;5031638;28;20029;-61
2022/10/23 00:46:45;;;;;;;25.03;16.03;;;;;;;10.77;100.00;101282.41;5031372;28;20383;-61
2022/10/23 00:49:11;;;;;;;26.20;16.52;;;;;;;10.76;100.00;101283.56;5031353;28;20311;-61
2022/10/23 00:51:40;;;;;;;24.92;16.30;;;;;;;10.75;100.00;101276.38;5031570;28;20105;-62
2022/10/23 00:54:07;;;;;;;26.33;15.88;;;;;;;10.75;100.00;101272.75;5031710;28;20021;-62
2022/10/23 00:56:36;;;;;;;24.08;15.85;;;;;;;10.69;100.00;101269.22;5033609;28;20037;-62
2022/10/23 00:59:02;;;;;;;24.67;15.88;;;;;;;10.76;100.00;101282.72;5035512;28;20104;-62
2022/10/23 01:01:27;;;;;;;24.25;16.10;;;;;;;10.75;100.00;101275.53;5035334;28;20118;-62
2022/10/23 01:03:52;;;;;;;24.58;15.57;;;;;;;10.74;100.00;101271.94;5035164;28;20388;-62
2022/10/23 01:06:39;;;;;;;24.98;15.60;;;;;;;10.76;100.00;101280.78;5035223;28;20033;-61
2022/10/23 01:09:17;;;;;;;27.33;15.00;;;;;;;10.76;100.00;101278.00;5035250;28;20056;-61
2022/10/23 01:11:51;;;;;;;22.95;14.52;;;;;;;10.76;100.00;101274.41;5035182;28;20033;-61
2022/10/23 01:14:32;;;;;;;24.88;14.68;;;;;;;10.74;100.00;101266.41;5034988;28;20044;-62
2022/10/23 01:17:11;;;;;;;25.77;14.73;;;;;;;10.76;100.00;101263.34;5035052;28;20029;-62
2022/10/23 01:19:58;;;;;;;24.92;15.57;;;;;;;10.80;100.00;101269.94;5033858;28;20370;-62
2022/10/23 01:22:45;;;;;;;23.42;15.25;;;;;;;10.77;100.00;101253.91;5034795;28;20087;-61
2022/10/23 01:25:54;;;;;;;23.08;15.18;;;;;;;10.79;100.00;101264.69;5034968;28;20079;-62
2022/10/23 01:28:35;;;;;;;24.65;14.95;;;;;;;10.77;100.00;101268.56;5034950;28;20033;-62
2022/10/23 01:31:05;;;;;;;24.35;14.82;;;;;;;10.71;100.00;101244.84;5034828;28;20109;-63
2022/10/23 01:33:37;;;;;;;24.17;14.73;;;;;;;10.75;100.00;101257.00;5034904;28;20033;-61
2022/10/23 01:36:07;;;;;;;24.25;16.55;;;;;;;10.71;100.00;101241.28;5034844;28;20530;-61
2022/10/23 01:38:45;;;;;;;24.02;15.40;;;;;;;10.72;100.00;101254.00;5035048;28;20025;-62
2022/10/23 01:41:23;;;;;;;24.73;15.45;;;;;;;10.66;100.00;101241.34;5034488;28;20036;-64
2022/10/23 01:44:01;;;;;;;23.95;14.85;;;;;;;10.69;100.00;101243.50;5033254;28;20038;-62
2022/10/23 01:46:27;;;;;;;24.98;15.05;;;;;;;10.68;100.00;101248.22;5034416;28;20032;-63
2022/10/23 01:48:54;;;;;;;24.27;15.43;;;;;;;10.67;100.00;101248.50;5034889;28;20017;-62
2022/10/23 01:51:23;;;;;;;24.67;16.08;;;;;;;10.64;100.00;101232.50;5034476;28;20086;-62
2022/10/23 01:53:51;;;;;;;26.38;15.50;;;;;;;10.61;100.00;101237.53;5034412;28;20115;-63
2022/10/23 01:56:25;;;;;;;25.67;15.90;;;;;;;10.62;100.00;101221.75;5034281;28;20519;-63
2022/10/23 01:58:53;;;;;;;23.85;14.98;;;;;;;10.58;100.00;101212.41;5034521;28;20025;-63
2022/10/23 02:01:21;;;;;;;23.17;14.32;;;;;;;10.60;100.00;101210.13;5034203;28;20067;-63
2022/10/23 02:03:48;;;;;;;24.50;14.80;;;;;;;10.59;100.00;101216.78;5034481;28;20484;-62
2022/10/23 02:06:14;;;;;;;22.40;14.45;;;;;;;10.58;100.00;101213.22;5034307;28;20171;-63
2022/10/23 02:08:39;;;;;;;23.02;14.23;;;;;;;10.57;100.00;101219.88;5033270;28;20488;-60
2022/10/23 02:11:16;;;;;;;23.45;14.52;;;;;;;10.54;100.00;101222.41;5034129;28;20542;-61
2022/10/23 02:14:02;;;;;;;24.35;14.43;;;;;;;10.54;100.00;101223.22;5034196;28;20025;-62
2022/10/23 02:16:41;;;;;;;25.40;14.70;;;;;;;10.50;100.00;101216.66;5033965;28;20100;-61
2022/10/23 02:19:16;;;;;;;27.20;15.40;;;;;;;10.44;100.00;101215.03;5033995;28;20053;-62
2022/10/23 02:21:47;;;;;;;25.25;15.45;;;;;;;10.44;100.00;101220.56;5034271;28;20362;-61
2022/10/23 02:24:16;;;;;;;25.40;15.55;;;;;;;10.42;100.00;101217.31;5033906;28;20108;-61
2022/10/23 02:26:48;;;;;;;24.58;14.60;;;;;;;10.38;100.00;101214.31;5033492;28;20544;-62
2022/10/23 02:29:24;;;;;;;22.77;14.95;;;;;;;10.33;100.00;101208.78;5033747;28;20427;-61
2022/10/23 02:31:49;;;;;;;26.13;15.75;;;;;;;10.36;100.00;101224.81;5034103;28;20026;-62
2022/10/23 02:34:15;;;;;;;25.60;15.13;;;;;;;10.35;100.00;101225.09;5033796;28;20022;-62
2022/10/23 02:36:41;;;;;;;25.27;14.93;;;;;;;10.34;100.00;101210.44;5033561;28;20105;-62
2022/10/23 02:39:06;;;;;;;26.48;15.80;;;;;;;10.34;100.00;101207.69;5033766;28;20030;-62
2022/10/23 02:41:40;;;;;;;27.60;15.98;;;;;;;10.34;100.00;101201.34;5032180;28;20143;-62
2022/10/23 02:44:14;;;;;;;24.45;14.95;;;;;;;10.34;100.00;101196.63;5033620;28;20040;-62
2022/10/23 02:47:01;;;;;;;23.85;14.93;;;;;;;10.34;100.00;101188.31;5033402;28;20048;-62
2022/10/23 02:49:33;;;;;;;25.98;15.75;;;;;;;10.34;100.00;101180.03;5033759;28;20033;-62
2022/10/23 02:52:27;;;;;;;24.05;15.32;;;;;;;10.36;100.00;101175.03;5033461;28;20037;-62
2022/10/23 02:55:04;;;;;;;23.42;14.27;;;;;;;10.37;100.00;101156.47;5033427;28;20029;-62
2022/10/23 02:57:34;;;;;;;24.45;14.80;;;;;;;10.39;100.00;101154.28;5033490;28;20036;-62
2022/10/23 03:00:11;;;;;;;24.95;14.10;;;;;;;10.39;100.00;101145.97;5033316;28;20461;-63
2022/10/23 03:02:45;;;;;;;24.63;14.88;;;;;;;10.40;100.00;101137.38;5033123;28;20044;-61
2022/10/23 03:05:15;;;;;;;27.55;15.18;;;;;;;10.41;100.00;101139.03;5033220;28;20033;-61
2022/10/23 03:07:40;;;;;;;24.52;14.15;;;;;;;10.42;100.00;101132.38;5033153;28;20396;-61
2022/10/23 03:10:07;;;;;;;26.52;14.93;;;;;;;10.44;100.00;101137.59;5033240;28;20021;-61
2022/10/23 03:12:33;;;;;;;24.40;14.48;;;;;;;10.45;100.00;101134.56;5033001;28;20022;-61
2022/10/23 03:14:58;;;;;;;25.35;14.27;;;;;;;10.47;100.00;101139.78;5032914;28;20029;-61
2022/10/23 03:17:24;;;;;;;24.80;14.23;;;;;;;10.48;100.00;101122.06;5032905;28;20029;-62
2022/10/23 03:19:49;;;;;;;23.80;14.52;;;;;;;10.48;100.00;101126.78;5032817;28;20100;-61
2022/10/23 03:22:15;;;;;;;23.52;14.82;;;;;;;10.51;100.00;101126.16;5032850;28;20395;-62
2022/10/23 03:24:40;;;;;;;26.85;14.93;;;;;;;10.51;100.00;101121.47;5031624;28;20021;-63
2022/10/23 03:27:05;;;;;;;27.13;14.50;;;;;;;10.52;100.00;101116.75;5032406;28;20053;-62
2022/10/23 03:29:31;;;;;;;24.65;13.90;;;;;;;10.51;100.00;101107.66;5031268;28;20083;-62
2022/10/23 03:31:56;;;;;;;26.25;14.57;;;;;;;10.53;100.00;101118.41;5032633;28;20500;-60
2022/10/23 03:34:21;;;;;;;24.45;14.15;;;;;;;10.54;100.00;101103.44;5032558;28;20437;-61
2022/10/23 03:36:47;;;;;;;23.00;13.90;;;;;;;10.54;100.00;101101.50;5032528;28;20033;-61
2022/10/23 03:39:12;;;;;;;22.95;14.20;;;;;;;10.55;100.00;101096.81;5032626;28;20021;-62
2022/10/23 03:41:37;;;;;;;23.75;13.27;;;;;;;10.54;100.00;101095.16;5032673;28;20028;-62
2022/10/23 03:44:02;;;;;;;24.10;13.70;;;;;;;10.54;100.00;101089.63;5032408;28;20036;-61
2022/10/23 03:46:28;;;;;;;25.13;13.68;;;;;;;10.56;100.00;101090.16;5032705;28;20033;-61
2022/10/23 03:48:57;;;;;;;26.23;13.20;;;;;;;10.56;100.00;101084.63;5032207;28;20464;-61
2022/10/23 03:51:22;;;;;;;23.92;13.93;;;;;;;10.56;100.00;101081.84;5032281;28;20029;-61
2022/10/23 03:53:48;;;;;;;23.65;14.23;;;;;;;10.58;100.00;101085.94;5032256;28;20029;-62
2022/10/23 03:56:13;;;;;;;25.27;13.77;;;;;;;10.58;100.00;101083.19;5032263;28;20040;-62
2022/10/23 03:58:39;;;;;;;24.27;14.00;;;;;;;10.59;100.00;101084.00;5032207;28;20021;-62
2022/10/23 04:01:04;;;;;;;23.42;13.70;;;;;;;10.61;100.00;101079.84;5032092;28;20034;-63
2022/10/23 04:03:29;;;;;;;25.23;13.57;;;;;;;10.64;100.00;101083.94;5030721;28;20128;-62
2022/10/23 04:05:54;;;;;;;23.60;13.20;;;;;;;10.66;100.00;101086.38;5032007;28;20030;-62
2022/10/23 04:08:20;;;;;;;24.17;13.55;;;;;;;10.68;100.00;101073.88;5032056;28;20093;-62
2022/10/23 04:10:45;;;;;;;23.50;13.43;;;;;;;10.71;100.00;101073.31;5032191;28;20029;-62
2022/10/23 04:13:10;;;;;;;23.33;13.80;;;;;;;10.71;100.00;101070.53;5031945;28;20171;-62
2022/10/23 04:15:36;;;;;;;24.85;13.43;;;;;;;10.74;100.00;101055.25;5031988;28;20477;-62
2022/10/23 04:18:01;;;;;;;26.20;13.82;;;;;;;10.75;100.00;101054.97;5031816;28;20045;-61
2022/10/23 04:20:26;;;;;;;24.23;13.40;;;;;;;10.76;100.00;101053.03;5031878;28;20135;-62
2022/10/23 04:22:52;;;;;;;25.00;13.95;;;;;;;10.77;100.00;101047.19;5031766;28;20097;-62
2022/10/23 04:25:17;;;;;;;23.35;13.57;;;;;;;10.80;100.00;101042.16;5031583;28;20108;-62
2022/10/23 04:27:42;;;;;;;23.95;13.43;;;;;;;10.79;100.00;101044.13;5031703;28;20029;-62
2022/10/23 04:30:08;;;;;;;23.98;13.90;;;;;;;10.81;100.00;101050.19;5031115;28;20079;-61
2022/10/23 04:32:34;;;;;;;24.42;13.45;;;;;;;10.83;100.00;101050.69;5032281;28;20034;-62
2022/10/23 04:34:59;;;;;;;24.33;14.40;;;;;;;10.85;100.00;101053.97;5031897;28;20048;-61
2022/10/23 04:37:24;;;;;;;23.35;14.70;;;;;;;10.88;100.00;101052.53;5031635;28;20362;-63
2022/10/23 04:39:50;;;;;;;23.33;14.70;;;;;;;10.90;100.00;101045.59;5031558;28;20030;-61
2022/10/23 04:42:15;;;;;;;24.05;15.15;;;;;;;10.93;100.00;101044.16;5031702;28;20018;-61
2022/10/23 04:44:40;;;;;;;22.42;14.10;;;;;;;10.93;100.00;101039.44;5031692;28;20041;-62
2022/10/23 04:47:06;;;;;;;23.77;14.18;;;;;;;10.98;100.00;101037.72;5030129;28;20033;-62
2022/10/23 04:49:31;;;;;;;24.45;13.68;;;;;;;10.98;100.00;101040.47;5031512;28;20461;-61
2022/10/23 04:51:56;;;;;;;25.10;13.90;;;;;;;10.99;100.00;101039.38;5031674;28;20021;-62
2022/10/23 04:54:21;;;;;;;22.95;13.73;;;;;;;11.00;100.00;101038.25;5031301;28;20037;-61
2022/10/23 04:56:47;;;;;;;24.02;14.40;;;;;;;11.00;100.00;101039.03;5031532;28;20060;-61
2022/10/23 04:59:12;;;;;;;26.00;14.43;;;;;;;10.97;100.00;101041.59;5031547;28;20029;-62
2022/10/23 05:01:37;;;;;;;21.67;13.00;;;;;;;11.04;100.00;101044.78;5031399;28;20021;-62
2022/10/23 05:04:03;;;;;;;21.83;13.85;;;;;;;11.05;100.00;101035.38;5031282;28;20485;-61
2022/10/23 05:06:28;;;;;;;24.33;14.23;;;;;;;11.07;100.00;101022.03;5031519;28;20030;-61
2022/10/23 05:08:54;;;;;;;24.00;14.00;;;;;;;11.07;100.00;101027.59;5031283;28;20041;-61
2022/10/23 05:11:20;;;;;;;23.95;14.20;;;;;;;11.08;100.00;101032.00;5031281;28;20108;-60
2022/10/23 05:13:45;;;;;;;24.98;13.95;;;;;;;11.08;100.00;101024.50;5030057;28;20080;-61
2022/10/23 05:16:20;;;;;;;23.13;13.65;;;;;;;11.07;100.00;101019.28;5031204;28;20033;-61
2022/10/23 05:18:47;;;;;;;24.52;13.45;;;;;;;11.01;100.00;101017.72;5031398;28;20116;-61
2022/10/23 05:21:20;;;;;;;22.00;13.45;;;;;;;11.04;100.00;101025.41;5031369;28;20032;-62
2022/10/23 05:23:46;;;;;;;23.50;14.35;;;;;;;11.06;100.00;101023.97;5031606;28;20037;-62
2022/10/23 05:26:11;;;;;;;23.23;13.30;;;;;;;11.05;100.00;101015.97;5030827;28;20107;-61
2022/10/23 05:28:37;;;;;;;24.48;13.10;;;;;;;11.04;100.00;101014.34;5031155;28;20073;-61
2022/10/23 05:31:04;;;;;;;21.65;13.40;;;;;;;11.00;100.00;101013.31;5031062;28;20021;-61
2022/10/23 05:33:31;;;;;;;23.70;13.18;;;;;;;11.03;100.00;101019.06;5031173;28;20413;-61
2022/10/23 05:35:57;;;;;;;23.33;13.73;;;;;;;11.02;100.00;101008.28;5031054;28;20165;-61
2022/10/23 05:38:24;;;;;;;23.67;13.77;;;;;;;11.02;100.00;101016.59;5031049;28;20422;-61
2022/10/23 05:40:51;;;;;;;24.83;14.30;;;;;;;10.97;100.00;101003.66;5030767;28;20392;-62
2022/10/23 05:43:16;;;;;;;25.27;14.15;;;;;;;11.01;100.00;101006.63;5033715;28;20130;-62
2022/10/23 05:45:41;;;;;;;23.80;14.40;;;;;;;11.01;100.00;101004.69;5034415;28;20124;-62
2022/10/23 05:48:07;;;;;;;24.38;14.00;;;;;;;11.02;100.00;101008.28;5034436;28;20119;-62
2022/10/23 05:50:35;;;;;;;25.33;15.55;;;;;;;10.99;100.00;101000.59;5034488;28;20021;-62
2022/10/23 05:53:00;;;;;;;25.55;14.05;;;;;;;11.02;100.00;101002.75;5034324;28;20120;-62
2022/10/23 05:55:26;;;;;;;24.63;14.40;;;;;;;11.01;100.00;101006.63;5034122;28;20571;-62
2022/10/23 05:57:51;;;;;;;25.42;14.55;;;;;;;11.00;100.00;100989.22;5034529;28;20029;-61
2022/10/23 06:00:16;;;;;;;22.25;13.88;;;;;;;11.02;100.00;100995.28;5033353;28;20049;-62
2022/10/23 06:02:41;;;;;;;23.90;14.57;;;;;;;11.02;100.00;100995.28;5034105;28;20033;-62
2022/10/23 06:05:07;;;;;;;23.63;14.57;;;;;;;11.01;100.00;100990.88;5034062;28;20025;-62
2022/10/23 06:07:32;;;;;;;24.92;13.63;;;;;;;11.01;100.00;100985.31;5034066;28;20031;-61
2022/10/23 06:09:58;;;;;;;24.55;14.70;;;;;;;11.02;100.00;100984.19;5033940;28;20515;-61
2022/10/23 06:12:23;;;;;;;23.35;15.60;;;;;;;11.02;100.00;100983.38;5034059;28;20041;-62
2022/10/23 06:14:49;;;;;;;24.30;15.23;;;;;;;11.03;100.00;100985.00;5034232;28;20053;-61
2022/10/23 06:17:14;;;;;;;27.02;15.27;;;;;;;11.05;100.00;100983.56;5034105;28;20072;-62
2022/10/23 06:19:40;;;;;;;24.08;14.93;;;;;;;11.06;100.00;100971.38;5033812;28;20032;-62
2022/10/23 06:22:06;;;;;;;24.02;14.98;;;;;;;11.09;100.00;100969.97;5033733;28;20048;-62
2022/10/23 06:24:31;;;;;;;23.65;15.15;;;;;;;11.12;100.00;100969.34;5033763;28;20025;-61
2022/10/23 06:26:56;;;;;;;23.80;15.50;;;;;;;11.13;100.00;100972.94;5033227;28;20378;-62
2022/10/23 06:29:22;;;;;;;23.05;15.05;;;;;;;11.14;100.00;100975.38;5033515;28;20026;-62
2022/10/23 06:31:47;;;;;;;25.75;15.88;;;;;;;11.15;100.00;100973.44;5033752;28;20022;-62
2022/10/23 06:34:13;;;;;;;27.80;15.40;;;;;;;11.17;100.00;100972.00;5033528;28;20120;-61
2022/10/23 06:36:38;;;;;;;25.70;15.80;;;;;;;11.19;100.00;100964.19;5033721;28;20084;-61
2022/10/23 06:39:04;;;;;;;24.27;15.13;;;;;;;11.19;100.00;100968.94;5033529;28;20025;-62
2022/10/23 06:41:30;;;;;;;24.92;15.63;;;;;;;11.21;100.00;100958.38;5033321;28;20029;-61
2022/10/23 06:43:55;;;;;;;24.73;15.02;;;;;;;11.22;100.00;100966.34;5033107;28;20026;-63
2022/10/23 06:46:21;;;;;;;28.20;15.48;;;;;;;11.23;100.00;100956.13;5032936;28;20037;-62
2022/10/23 06:48:46;;;;;;;25.77;15.35;;;;;;;11.26;100.00;100952.72;5033058;28;20033;-61
2022/10/23 06:51:15;;;;;;;23.77;15.02;;;;;;;11.29;100.00;100951.31;5033068;28;20380;-62
2022/10/23 06:53:41;;;;;;;23.58;15.85;;;;;;;11.31;100.00;100951.78;5032464;28;20105;-61
2022/10/23 06:56:08;;;;;;;25.02;15.43;;;;;;;11.36;100.00;100946.16;5031369;28;20389;-62
2022/10/23 06:58:35;;;;;;;23.92;14.68;;;;;;;11.34;100.00;100938.13;5032728;28;20109;-62
2022/10/23 07:01:03;;;;;;;23.90;15.80;;;;;;;11.41;100.00;100937.72;5032761;28;20083;-63
2022/10/23 07:03:28;;;;;;;25.10;15.25;;;;;;;11.44;100.00;100942.66;5032963;28;20487;-63
2022/10/23 07:05:54;;;;;;;27.67;16.20;;;;;;;11.45;100.00;100936.00;5032695;28;20037;-63
2022/10/23 07:08:20;;;;;;;22.10;14.30;;;;;;;11.49;100.00;100944.50;5032845;28;20041;-63
2022/10/23 07:10:46;;;;;;;23.00;14.57;;;;;;;11.51;100.00;100937.50;5032646;28;20392;-63
2022/10/23 07:13:12;;;;;;;24.33;15.15;;;;;;;11.54;100.00;100941.59;5032092;28;20357;-63
2022/10/23 07:15:38;;;;;;;26.10;15.07;;;;;;;11.58;100.00;100942.63;5032681;28;20534;-62
2022/10/23 07:18:04;;;;;;;22.80;14.75;;;;;;;11.62;100.00;100945.59;5032737;28;20465;-63
2022/10/23 07:20:29;;;;;;;23.38;14.27;;;;;;;11.65;100.00;100940.25;5032683;28;20060;-62
2022/10/23 07:22:55;;;;;;;24.92;15.48;;;;;;;11.70;100.00;100937.38;5032600;28;20017;-63
2022/10/23 07:25:22;;;;;;;25.27;15.93;;;;;;;11.74;100.00;100940.34;5032043;28;20480;-62
2022/10/23 07:27:48;;;;;;;22.52;14.70;;;;;;;11.79;100.00;100928.34;5032706;28;20042;-62
2022/10/23 07:30:14;;;;;;;23.42;14.85;;;;;;;11.82;100.00;100925.75;5032426;28;20137;-62
2022/10/23 07:32:40;;;;;;;22.02;14.20;;;;;;;11.83;100.00;100924.63;5032456;28;20033;-63
2022/10/23 07:35:06;;;;;;;25.70;14.90;;;;;;;11.86;100.00;100923.16;5032297;28;20388;-63
2022/10/23 07:37:31;;;;;;;23.33;14.73;;;;;;;11.92;100.00;100927.44;5032018;28;20040;-63
2022/10/23 07:39:57;;;;;;;21.15;13.52;;;;;;;11.96;100.00;100916.56;5032145;28;20108;-63
2022/10/23 07:42:22;;;;;;;22.50;13.93;;;;;;;11.99;100.00;100911.25;5032039;28;20100;-61
2022/10/23 07:44:47;;;;;;;23.58;14.23;;;;;;;12.03;100.00;100917.00;5032115;28;20025;-62
2022/10/23 07:47:13;;;;;;;23.58;14.73;;;;;;;12.05;100.00;100917.47;5031984;28;20029;-62
2022/10/23 07:49:38;;;;;;;21.35;13.75;;;;;;;12.09;100.00;100912.13;5031762;28;20047;-63
2022/10/23 07:52:04;;;;;;;23.15;14.50;;;;;;;12.14;100.00;100920.31;5032041;28;20108;-62
2022/10/23 07:54:29;;;;;;;23.92;13.98;;;;;;;12.17;100.00;100908.59;5031736;28;20037;-63
2022/10/23 07:56:55;;;;;;;25.83;14.30;;;;;;;12.21;100.00;100900.47;5031968;28;20021;-63
2022/10/23 07:59:20;;;;;;;23.52;14.65;;;;;;;12.25;100.00;100898.69;5032047;28;20067;-62
2022/10/23 08:01:47;;;;;;;25.10;14.90;;;;;;;12.29;100.00;100906.06;5031682;28;20053;-63
2022/10/23 08:04:12;;;;;;;22.88;14.43;;;;;;;12.33;100.00;100901.53;5031763;28;20021;-63
2022/10/23 08:06:37;;;;;;;24.35;14.10;;;;;;;12.39;100.00;100904.16;5030729;28;20026;-63
2022/10/23 08:09:03;;;;;;;22.45;13.80;;;;;;;12.43;100.00;100903.22;5031548;28;20025;-63
2022/10/23 08:11:34;;;;;;;21.95;13.10;;;;;;;12.47;100.00;100892.28;5031860;28;20091;-61
2022/10/23 08:14:03;;;;;;;22.38;13.70;;;;;;;12.55;100.00;100901.81;5031726;28;20083;-61
2022/10/23 08:16:29;;;;;;;21.85;13.23;;;;;;;12.60;100.00;100891.38;5031788;28;20124;-61
2022/10/23 08:18:54;;;;;;;23.20;12.85;;;;;;;12.67;100.00;100890.94;5030273;28;20030;-62
2022/10/23 08:21:20;;;;;;;21.35;13.02;;;;;;;12.74;100.00;100890.47;5031385;28;20044;-63
2022/10/23 08:23:45;;;;;;;22.08;13.48;;;;;;;12.80;100.00;100892.78;5031542;28;20025;-61
2022/10/23 08:26:11;;;;;;;21.40;13.25;;;;;;;12.86;100.00;100887.91;5031097;28;20053;-62
2022/10/23 08:28:36;;;;;;;21.80;12.77;;;;;;;12.96;100.00;100892.38;5031519;28;20029;-62
2022/10/23 08:31:07;;;;;;;22.98;12.85;;;;;;;13.00;100.00;100886.97;5031331;28;20025;-62
2022/10/23 08:33:33;;;;;;;22.10;12.70;;;;;;;13.09;100.00;100887.81;5031404;28;20543;-62
2022/10/23 08:35:58;;;;;;;21.60;12.80;;;;;;;13.17;100.00;100894.56;5029924;28;20041;-63
2022/10/23 08:38:23;;;;;;;22.73;12.80;;;;;;;13.24;100.00;100898.47;5030012;28;20065;-61
2022/10/23 08:40:49;;;;;;;24.10;14.63;;;;;;;13.33;100.00;100883.78;5031234;28;20119;-61
2022/10/23 08:43:36;;;;;;;22.90;12.45;;;;;;;13.36;100.00;100867.31;5031420;28;20063;-61
2022/10/23 08:46:09;;;;;;;19.98;11.98;;;;;;;13.40;100.00;100868.31;5031227;28;20112;-61
2022/10/23 08:48:44;;;;;;;21.73;11.90;;;;;;;13.47;100.00;100876.19;5031247;28;20095;-61
2022/10/23 08:51:20;;;;;;;21.05;12.30;;;;;;;13.48;100.00;100876.97;5031203;28;20101;-61
2022/10/23 08:54:04;;;;;;;21.58;12.13;;;;;;;13.49;100.00;100864.72;5031519;28;20084;-61
2022/10/23 08:56:36;;;;;;;19.83;12.02;;;;;;;13.48;100.00;100860.31;5031254;28;20418;-62
2022/10/23 08:59:27;;;;;;;20.48;11.75;;;;;;;13.50;100.00;100858.03;5029794;28;20087;-62
2022/10/23 09:02:01;;;;;;;19.98;11.57;;;;;;;13.45;100.00;100858.19;5031521;28;20026;-62
2022/10/23 09:04:27;;;;;;;20.80;11.57;;;;;;;13.51;100.00;100857.69;5031420;28;20057;-62
2022/10/23 09:07:06;;;;;;;20.35;11.23;;;;;;;13.55;100.00;100861.47;5030959;28;20103;-62
2022/10/23 09:09:46;;;;;;;21.00;12.07;;;;;;;13.59;100.00;100853.28;5031385;28;20512;-63
2022/10/23 09:12:19;;;;;;;20.08;11.75;;;;;;;13.60;100.00;100843.81;5031072;28;20030;-63
2022/10/23 09:14:47;;;;;;;21.10;12.25;;;;;;;13.64;100.00;100843.97;5031247;28;20432;-63
2022/10/23 09:17:20;;;;;;;23.05;12.40;;;;;;;13.64;100.00;100833.69;5032700;28;20025;-63
2022/10/23 09:19:46;;;;;;;21.52;11.68;;;;;;;13.65;100.00;100831.72;5034856;28;20404;-63
2022/10/23 09:22:12;;;;;;;22.05;12.70;;;;;;;13.64;100.00;100819.78;5034725;28;20104;-63
2022/10/23 09:24:41;;;;;;;19.70;11.80;;;;;;;13.64;100.00;100825.34;5033263;28;20108;-63
2022/10/23 09:27:14;;;;;;;21.85;11.88;;;;;;;13.70;100.00;100835.13;5034653;28;20069;-61
2022/10/23 09:29:47;;;;;;;21.70;11.73;;;;;;;13.77;100.00;100822.69;5034795;28;20594;-61
2022/10/23 09:32:12;;;;;;;23.17;11.68;;;;;;;13.81;100.00;100812.56;5034746;28;20047;-63
2022/10/23 09:34:49;;;;;;;20.85;11.52;;;;;;;13.84;100.00;100806.31;5034487;28;20524;-63
2022/10/23 09:37:29;;;;;;;19.90;11.23;;;;;;;13.91;100.00;100817.78;5034620;28;20479;-62
2022/10/23 09:40:21;;;;;;;21.27;11.70;;;;;;;13.92;100.00;100805.53;5034410;28;20029;-62
2022/10/23 09:43:14;;;;;;;20.98;12.13;;;;;;;13.98;100.00;100808.94;5034338;28;20378;-62
2022/10/23 09:45:41;;;;;;;21.27;12.15;;;;;;;13.98;100.00;100801.41;5027879;28;20129;-62
2022/10/23 09:48:18;;;;;;;21.58;12.20;;;;;;;14.01;100.00;100794.38;5034428;28;20136;-62
2022/10/23 09:50:52;;;;;;;19.92;11.68;;;;;;;14.01;100.00;100791.59;5034122;28;20049;-63
2022/10/23 09:53:27;;;;;;;21.13;11.10;;;;;;;14.07;100.00;100784.72;5034202;28;20126;-62
2022/10/23 09:55:55;;;;;;;21.48;11.57;;;;;;;14.07;100.00;100781.09;5034085;28;20548;-62
2022/10/23 09:58:30;;;;;;;19.98;11.85;;;;;;;14.09;100.00;100773.25;5034101;28;20037;-62
2022/10/23 10:00:56;;;;;;;20.77;11.73;;;;;;;14.18;100.00;100785.97;5033968;28;20389;-62
2022/10/23 10:03:22;;;;;;;21.85;12.18;;;;;;;14.23;100.00;100781.38;5034297;28;20139;-63
2022/10/23 10:06:03;;;;;;;20.58;11.85;;;;;;;14.31;100.00;100783.31;5032548;28;20120;-61
2022/10/23 10:08:50;;;;;;;19.17;11.20;;;;;;;14.33;100.00;100769.88;5034658;28;20025;-62
2022/10/23 10:11:26;;;;;;;21.52;11.02;;;;;;;14.35;100.00;100765.63;5033818;28;20087;-64
2022/10/23 10:14:05;;;;;;;21.70;11.85;;;;;;;14.40;100.00;100756.25;5034002;28;20488;-62
2022/10/23 10:16:49;;;;;;;21.92;11.80;;;;;;;14.44;100.00;100753.63;5034140;28;20061;-62
2022/10/23 10:19:48;;;;;;;21.02;11.55;;;;;;;14.41;100.00;100748.72;5033900;28;20491;-62
2022/10/23 10:22:32;;;;;;;19.83;11.13;;;;;;;14.45;100.00;100736.56;5030401;28;20354;-62
2022/10/23 10:25:20;;;;;;;19.42;11.60;;;;;;;14.50;100.00;100732.78;5033877;28;20037;-62
2022/10/23 10:27:57;;;;;;;20.38;11.57;;;;;;;14.52;100.00;100730.50;5033049;28;20025;-62
2022/10/23 10:30:24;;;;;;;22.80;12.07;;;;;;;14.51;100.00;100710.19;5033123;28;20041;-62
2022/10/23 10:32:56;;;;;;;18.98;11.93;;;;;;;14.62;100.00;100716.19;5033400;28;20030;-62
2022/10/23 10:35:53;;;;;;;21.45;12.68;;;;;;;14.72;100.00;100716.97;5033659;28;20037;-63
2022/10/23 10:38:27;;;;;;;20.15;12.30;;;;;;;14.77;100.00;100711.22;5033048;28;20508;-62
2022/10/23 10:41:13;;;;;;;21.02;12.32;;;;;;;14.86;100.00;100723.13;5033401;28;20104;-62
2022/10/23 10:43:56;;;;;;;18.83;11.48;;;;;;;14.91;100.00;100719.31;5002394;28;20521;-62
2022/10/23 10:46:46;;;;;;;20.20;12.40;;;;;;;14.98;100.00;100712.03;5033212;28;20112;-62
2022/10/23 10:49:22;;;;;;;20.38;12.07;;;;;;;15.04;100.00;100709.84;5032960;28;20159;-61
2022/10/23 10:52:01;;;;;;;22.60;12.50;;;;;;;15.12;100.00;100706.19;5033261;28;20094;-61
2022/10/23 10:54:37;;;;;;;23.00;12.32;;;;;;;15.22;100.00;100712.50;5033283;28;20065;-62
2022/10/23 10:57:12;;;;;;;19.90;11.50;;;;;;;15.30;100.00;100706.06;5033104;28;20025;-62
2022/10/23 10:59:41;;;;;;;21.10;11.63;;;;;;;15.39;100.00;100700.38;5032939;28;20495;-63
2022/10/23 11:02:28;;;;;;;22.88;11.25;;;;;;;15.49;100.00;100683.25;5032813;28;20030;-62
2022/10/23 11:05:19;;;;;;;21.48;11.45;;;;;;;15.65;100.00;100680.63;5032638;28;20083;-62
2022/10/23 11:07:58;;;;;;;21.65;10.70;;;;;;;15.71;100.00;100667.25;5021869;28;20041;-62
2022/10/23 11:10:25;;;;;;;19.55;10.30;;;;;;;15.88;100.00;100677.41;5032973;28;20052;-62
2022/10/23 11:12:51;;;;;;;21.50;10.45;;;;;;;15.97;100.00;100660.59;5032713;28;20334;-62